createdAt,value
2023-02-05T00:00:06.833Z,98.13
2023-02-05T00:01:06.803Z,98.81
2023-02-05T00:02:06.878Z,98.55
2023-02-05T00:03:06.871Z,98.49
2023-02-05T00:04:06.777Z,98.28
2023-02-05T00:05:06.789Z,97.91
2023-02-05T00:06:06.761Z,98.96
2023-02-05T00:07:06.771Z,99.28
2023-02-05T00:08:06.740Z,98.96
2023-02-05T00:09:06.725Z,98.58
2023-02-05T00:10:06.713Z,98.90
2023-02-05T00:11:06.719Z,99.99
2023-02-05T00:12:06.685Z,99.99
2023-02-05T00:13:06.704Z,99.99
2023-02-05T00:14:06.671Z,99.64
2023-02-05T00:15:06.675Z,99.64
2023-02-05T00:16:06.682Z,99.99
2023-02-05T00:17:06.638Z,99.43
2023-02-05T00:18:06.656Z,98.90
2023-02-05T00:19:06.641Z,99.11
2023-02-05T00:20:06.612Z,99.07
2023-02-05T00:21:06.613Z,99.54
2023-02-05T00:22:06.593Z,99.70
2023-02-05T00:23:06.571Z,98.65
2023-02-05T00:24:06.555Z,98.86
2023-02-05T00:25:06.573Z,99.07
2023-02-05T00:26:06.550Z,99.64
2023-02-05T00:27:06.624Z,99.91
2023-02-05T00:28:06.605Z,99.80
2023-02-05T00:29:06.500Z,99.70
2023-02-05T00:30:06.504Z,99.85
2023-02-05T00:31:06.666Z,99.70
2023-02-05T00:32:06.479Z,99.70
2023-02-05T00:33:06.501Z,98.96
2023-02-05T00:34:06.458Z,98.96
2023-02-05T00:35:06.443Z,98.90
2023-02-05T00:36:06.437Z,99.75
2023-02-05T00:37:06.427Z,99.99
2023-02-05T00:38:06.430Z,99.80
2023-02-05T00:39:06.411Z,99.18
2023-02-05T00:40:06.421Z,99.07
2023-02-05T00:41:06.383Z,98.96
2023-02-05T00:42:06.391Z,99.07
2023-02-05T00:43:06.363Z,99.22
2023-02-05T00:44:06.365Z,99.28
2023-02-05T00:45:06.339Z,99.18
2023-02-05T00:46:06.422Z,99.38
2023-02-05T00:47:06.327Z,99.07
2023-02-05T00:48:06.309Z,99.38
2023-02-05T00:49:06.293Z,99.99
2023-02-05T00:50:06.290Z,99.49
2023-02-05T00:51:06.274Z,99.70
2023-02-05T00:52:06.273Z,99.99
2023-02-05T00:53:06.263Z,99.80
2023-02-05T00:54:06.258Z,99.70
2023-02-05T00:55:06.232Z,99.70
2023-02-05T00:56:06.228Z,99.80
2023-02-05T00:57:06.215Z,99.99
2023-02-05T00:58:06.203Z,99.60
2023-02-05T00:59:06.194Z,99.80
2023-02-05T01:00:06.191Z,99.75
2023-02-05T01:01:06.361Z,99.70
2023-02-05T01:02:06.157Z,99.75
2023-02-05T01:03:06.168Z,99.91
2023-02-05T01:04:06.140Z,99.38
2023-02-05T01:05:06.126Z,99.44
2023-02-05T01:06:06.121Z,99.70
2023-02-05T01:07:06.095Z,99.70
2023-02-05T01:08:06.089Z,99.99
2023-02-05T01:09:06.094Z,99.70
2023-02-05T01:10:06.104Z,99.38
2023-02-05T01:11:06.071Z,99.60
2023-02-05T01:12:06.061Z,99.49
2023-02-05T01:13:06.036Z,99.38
2023-02-05T01:14:06.060Z,99.60
2023-02-05T01:15:06.033Z,99.38
2023-02-05T01:16:06.104Z,99.99
2023-02-05T01:17:06.007Z,99.99
2023-02-05T01:18:05.993Z,99.70
2023-02-05T01:19:06.089Z,99.96
2023-02-05T01:20:06.027Z,99.60
2023-02-05T01:21:05.966Z,99.99
2023-02-05T01:22:05.954Z,99.70
2023-02-05T01:23:05.946Z,99.70
2023-02-05T01:24:05.948Z,99.01
2023-02-05T01:25:05.936Z,99.64
2023-02-05T01:26:05.907Z,99.49
2023-02-05T01:27:05.893Z,99.32
2023-02-05T01:28:05.905Z,99.70
2023-02-05T01:29:05.866Z,99.32
2023-02-05T01:30:05.855Z,99.32
2023-02-05T01:31:05.949Z,99.96
2023-02-05T01:32:05.839Z,99.43
2023-02-05T01:33:05.828Z,99.75
2023-02-05T01:34:05.826Z,99.96
2023-02-05T01:35:05.823Z,99.75
2023-02-05T01:36:05.811Z,99.43
2023-02-05T01:37:05.789Z,99.99
2023-02-05T01:38:05.768Z,99.99
2023-02-05T01:39:05.769Z,99.96
2023-02-05T01:40:05.779Z,99.64
2023-02-05T01:41:05.737Z,99.99
2023-02-05T01:42:05.734Z,99.75
2023-02-05T01:43:05.714Z,99.75
2023-02-05T01:44:05.703Z,99.85
2023-02-05T01:45:05.696Z,99.64
2023-02-05T01:46:05.710Z,99.26
2023-02-05T01:47:05.670Z,99.99
2023-02-05T01:48:05.672Z,99.69
2023-02-05T01:49:05.669Z,99.11
2023-02-05T01:50:05.651Z,99.90
2023-02-05T01:51:05.647Z,99.99
2023-02-05T01:52:05.626Z,99.69
2023-02-05T01:53:05.615Z,98.69
2023-02-05T01:54:05.592Z,97.85
2023-02-05T01:55:05.578Z,98.16
2023-02-05T01:56:05.573Z,98.90
2023-02-05T01:57:05.561Z,98.90
2023-02-05T01:58:05.589Z,99.22
2023-02-05T01:59:05.538Z,98.43
2023-02-05T02:00:05.537Z,98.58
2023-02-05T02:01:05.561Z,98.80
2023-02-05T02:02:05.519Z,98.94
2023-02-05T02:03:05.533Z,99.26
2023-02-05T02:04:05.516Z,99.05
2023-02-05T02:05:05.566Z,99.10
2023-02-05T02:06:05.465Z,98.88
2023-02-05T02:07:05.472Z,99.95
2023-02-05T02:08:05.450Z,99.99
2023-02-05T02:09:05.450Z,99.99
2023-02-05T02:10:05.447Z,99.95
2023-02-05T02:11:05.405Z,99.99
2023-02-05T02:12:05.400Z,99.95
2023-02-05T02:13:05.388Z,99.99
2023-02-05T02:14:05.386Z,99.99
2023-02-05T02:15:05.377Z,99.99
2023-02-05T02:16:05.468Z,99.73
2023-02-05T02:17:05.347Z,99.90
2023-02-05T02:18:05.335Z,99.99
2023-02-05T02:19:05.320Z,99.90
2023-02-05T02:20:05.321Z,99.37
2023-02-05T02:21:05.309Z,99.48
2023-02-05T02:22:05.307Z,99.48
2023-02-05T02:23:05.296Z,99.26
2023-02-05T02:24:05.278Z,99.58
2023-02-05T02:25:05.278Z,99.58
2023-02-05T02:26:05.250Z,99.69
2023-02-05T02:27:05.264Z,99.69
2023-02-05T02:28:05.278Z,99.37
2023-02-05T02:29:05.213Z,99.26
2023-02-05T02:30:05.209Z,99.16
2023-02-05T02:31:05.307Z,98.99
2023-02-05T02:32:05.185Z,97.31
2023-02-05T02:33:05.274Z,96.47
2023-02-05T02:34:05.181Z,97.21
2023-02-05T02:35:05.156Z,98.27
2023-02-05T02:36:05.143Z,98.21
2023-02-05T02:37:05.127Z,98.74
2023-02-05T02:38:05.132Z,99.26
2023-02-05T02:39:05.144Z,98.94
2023-02-05T02:40:05.130Z,98.90
2023-02-05T02:41:05.103Z,98.90
2023-02-05T02:42:05.083Z,99.22
2023-02-05T02:43:05.086Z,98.94
2023-02-05T02:44:05.068Z,98.94
2023-02-05T02:45:05.052Z,99.16
2023-02-05T02:46:05.051Z,99.16
2023-02-05T02:47:05.023Z,99.32
2023-02-05T02:48:05.016Z,99.10
2023-02-05T02:49:05.015Z,98.68
2023-02-05T02:50:05.008Z,98.99
2023-02-05T02:51:04.988Z,99.41
2023-02-05T02:52:04.990Z,99.84
2023-02-05T02:53:04.961Z,99.69
2023-02-05T02:54:04.997Z,99.31
2023-02-05T02:55:05.022Z,99.95
2023-02-05T02:56:04.949Z,99.63
2023-02-05T02:57:04.919Z,99.58
2023-02-05T02:58:04.942Z,98.99
2023-02-05T02:59:04.910Z,99.73
2023-02-05T03:00:04.909Z,99.41
2023-02-05T03:01:04.951Z,99.63
2023-02-05T03:02:04.883Z,98.88
2023-02-05T03:03:04.862Z,98.94
2023-02-05T03:04:04.900Z,99.05
2023-02-05T03:05:04.847Z,98.99
2023-02-05T03:06:04.831Z,99.20
2023-02-05T03:07:04.838Z,99.84
2023-02-05T03:08:04.808Z,99.79
2023-02-05T03:09:04.799Z,99.52
2023-02-05T03:10:04.803Z,99.05
2023-02-05T03:11:04.798Z,99.10
2023-02-05T03:12:04.769Z,98.99
2023-02-05T03:13:04.757Z,99.57
2023-02-05T03:14:04.744Z,99.31
2023-02-05T03:15:04.765Z,99.63
2023-02-05T03:16:04.773Z,98.99
2023-02-05T03:17:04.733Z,98.99
2023-02-05T03:18:04.705Z,99.10
2023-02-05T03:19:04.688Z,98.99
2023-02-05T03:20:04.682Z,99.10
2023-02-05T03:21:04.686Z,98.88
2023-02-05T03:22:04.680Z,98.99
2023-02-05T03:23:04.654Z,98.99
2023-02-05T03:24:04.639Z,98.99
2023-02-05T03:25:04.632Z,98.88
2023-02-05T03:26:04.642Z,99.57
2023-02-05T03:27:04.651Z,99.20
2023-02-05T03:28:04.638Z,99.88
2023-02-05T03:29:04.586Z,99.88
2023-02-05T03:30:04.592Z,99.52
2023-02-05T03:31:04.634Z,99.95
2023-02-05T03:32:04.554Z,99.99
2023-02-05T03:33:04.556Z,99.99
2023-02-05T03:34:04.580Z,99.99
2023-02-05T03:35:04.522Z,99.99
2023-02-05T03:36:04.512Z,99.99
2023-02-05T03:37:04.521Z,99.99
2023-02-05T03:38:04.498Z,99.84
2023-02-05T03:39:04.489Z,99.84
2023-02-05T03:40:04.477Z,99.58
2023-02-05T03:41:04.470Z,99.52
2023-02-05T03:42:04.446Z,99.20
2023-02-05T03:43:04.461Z,98.99
2023-02-05T03:44:04.437Z,98.88
2023-02-05T03:45:04.432Z,98.99
2023-02-05T03:46:04.442Z,99.73
2023-02-05T03:47:04.405Z,99.35
2023-02-05T03:48:04.382Z,99.10
2023-02-05T03:49:04.375Z,99.25
2023-02-05T03:50:04.360Z,99.25
2023-02-05T03:51:04.387Z,99.57
2023-02-05T03:52:04.340Z,99.77
2023-02-05T03:53:04.339Z,98.88
2023-02-05T03:54:04.320Z,99.46
2023-02-05T03:55:04.310Z,99.88
2023-02-05T03:56:04.309Z,98.93
2023-02-05T03:57:04.317Z,99.04
2023-02-05T03:58:04.285Z,99.04
2023-02-05T03:59:04.304Z,99.71
2023-02-05T04:00:04.255Z,99.35
2023-02-05T04:01:04.287Z,99.99
2023-02-05T04:02:04.300Z,99.77
2023-02-05T04:03:04.259Z,99.52
2023-02-05T04:04:04.242Z,99.84
2023-02-05T04:05:04.221Z,99.35
2023-02-05T04:06:04.206Z,99.31
2023-02-05T04:07:04.186Z,99.14
2023-02-05T04:08:04.186Z,98.72
2023-02-05T04:09:04.178Z,99.35
2023-02-05T04:10:04.156Z,99.08
2023-02-05T04:11:04.154Z,99.46
2023-02-05T04:12:04.141Z,99.35
2023-02-05T04:13:04.129Z,99.35
2023-02-05T04:14:04.106Z,99.19
2023-02-05T04:15:04.127Z,99.19
2023-02-05T04:16:04.146Z,99.77
2023-02-05T04:17:04.129Z,99.82
2023-02-05T04:18:04.068Z,98.70
2023-02-05T04:19:04.066Z,97.53
2023-02-05T04:20:04.055Z,97.43
2023-02-05T04:21:04.039Z,98.28
2023-02-05T04:22:04.020Z,98.87
2023-02-05T04:23:04.028Z,99.51
2023-02-05T04:24:04.126Z,99.99
2023-02-05T04:25:04.007Z,99.93
2023-02-05T04:26:03.989Z,99.93
2023-02-05T04:27:03.975Z,99.99
2023-02-05T04:28:04.016Z,99.88
2023-02-05T04:29:03.955Z,99.61
2023-02-05T04:30:03.949Z,99.99
2023-02-05T04:31:03.995Z,99.08
2023-02-05T04:32:03.932Z,99.19
2023-02-05T04:33:03.941Z,98.66
2023-02-05T04:34:03.920Z,98.70
2023-02-05T04:35:03.892Z,98.38
2023-02-05T04:36:03.880Z,97.64
2023-02-05T04:37:03.873Z,96.94
2023-02-05T04:38:03.858Z,96.20
2023-02-05T04:39:03.865Z,97.05
2023-02-05T04:40:03.852Z,97.05
2023-02-05T04:41:03.836Z,98.64
2023-02-05T04:42:03.831Z,99.70
2023-02-05T04:43:03.816Z,99.87
2023-02-05T04:44:03.802Z,99.99
2023-02-05T04:45:03.791Z,99.99
2023-02-05T04:46:03.967Z,99.99
2023-02-05T04:47:03.797Z,99.99
2023-02-05T04:48:03.757Z,99.99
2023-02-05T04:49:03.758Z,99.99
2023-02-05T04:50:03.736Z,99.99
2023-02-05T04:51:03.731Z,99.99
2023-02-05T04:52:03.733Z,99.99
2023-02-05T04:53:03.708Z,99.99
2023-02-05T04:54:03.692Z,99.99
2023-02-05T04:55:03.760Z,99.99
2023-02-05T04:56:03.674Z,99.99
2023-02-05T04:57:03.691Z,99.99
2023-02-05T04:58:03.779Z,99.99
2023-02-05T04:59:03.650Z,99.99
2023-02-05T05:00:03.629Z,99.44
2023-02-05T05:01:03.768Z,99.99
2023-02-05T05:02:03.627Z,99.99
2023-02-05T05:03:03.637Z,99.99
2023-02-05T05:04:03.640Z,99.99
2023-02-05T05:05:03.582Z,99.99
2023-02-05T05:06:03.571Z,99.88
2023-02-05T05:07:03.568Z,99.77
2023-02-05T05:08:03.548Z,98.19
2023-02-05T05:09:03.570Z,96.60
2023-02-05T05:10:03.541Z,96.22
2023-02-05T05:11:03.520Z,96.44
2023-02-05T05:12:03.518Z,97.49
2023-02-05T05:13:03.503Z,98.34
2023-02-05T05:14:03.491Z,99.29
2023-02-05T05:15:03.479Z,99.99
2023-02-05T05:16:03.511Z,99.99
2023-02-05T05:17:03.472Z,99.99
2023-02-05T05:18:03.451Z,99.99
2023-02-05T05:19:03.477Z,99.63
2023-02-05T05:20:03.425Z,99.67
2023-02-05T05:21:03.430Z,97.91
2023-02-05T05:22:03.412Z,97.07
2023-02-05T05:23:03.442Z,96.90
2023-02-05T05:24:03.384Z,97.22
2023-02-05T05:25:03.376Z,98.02
2023-02-05T05:26:03.363Z,98.91
2023-02-05T05:27:03.355Z,99.51
2023-02-05T05:28:03.449Z,99.99
2023-02-05T05:29:03.437Z,99.99
2023-02-05T05:30:03.319Z,99.99
2023-02-05T05:31:03.374Z,99.88
2023-02-05T05:32:03.315Z,99.77
2023-02-05T05:33:03.295Z,99.73
2023-02-05T05:34:03.286Z,99.31
2023-02-05T05:35:03.309Z,99.41
2023-02-05T05:36:03.258Z,99.20
2023-02-05T05:37:03.256Z,98.36
2023-02-05T05:38:03.237Z,97.83
2023-02-05T05:39:03.232Z,98.14
2023-02-05T05:40:03.229Z,98.14
2023-02-05T05:41:03.232Z,98.99
2023-02-05T05:42:03.200Z,98.99
2023-02-05T05:43:03.189Z,98.57
2023-02-05T05:44:03.186Z,98.88
2023-02-05T05:45:03.168Z,97.49
2023-02-05T05:46:03.205Z,95.90
2023-02-05T05:47:03.165Z,96.16
2023-02-05T05:48:03.135Z,96.22
2023-02-05T05:49:03.124Z,96.33
2023-02-05T05:50:03.111Z,97.07
2023-02-05T05:51:03.157Z,96.69
2023-02-05T05:52:03.127Z,96.26
2023-02-05T05:53:03.098Z,95.84
2023-02-05T05:54:03.089Z,95.63
2023-02-05T05:55:03.070Z,95.25
2023-02-05T05:56:03.048Z,95.73
2023-02-05T05:57:03.042Z,95.73
2023-02-05T05:58:03.040Z,95.78
2023-02-05T05:59:03.030Z,95.95
2023-02-05T06:00:03.022Z,97.07
2023-02-05T06:01:03.001Z,98.81
2023-02-05T06:02:02.999Z,99.13
2023-02-05T06:03:02.977Z,99.71
2023-02-05T06:04:04.284Z,99.82
2023-02-05T06:05:02.966Z,99.93
2023-02-05T06:06:02.947Z,99.82
2023-02-05T06:07:02.960Z,99.14
2023-02-05T06:08:02.926Z,99.19
2023-02-05T06:09:02.942Z,98.93
2023-02-05T06:10:02.966Z,99.04
2023-02-05T06:11:02.909Z,99.14
2023-02-05T06:12:02.926Z,99.08
2023-02-05T06:13:02.872Z,99.23
2023-02-05T06:14:02.855Z,99.97
2023-02-05T06:15:02.850Z,99.02
2023-02-05T06:16:02.977Z,98.70
2023-02-05T06:17:02.830Z,97.90
2023-02-05T06:18:02.817Z,96.94
2023-02-05T06:19:02.826Z,95.46
2023-02-05T06:20:02.796Z,96.03
2023-02-05T06:21:02.790Z,95.82
2023-02-05T06:22:02.809Z,95.78
2023-02-05T06:23:02.797Z,96.09
2023-02-05T06:24:02.755Z,96.98
2023-02-05T06:25:02.766Z,97.58
2023-02-05T06:26:02.731Z,97.83
2023-02-05T06:27:02.731Z,99.07
2023-02-05T06:28:02.752Z,99.87
2023-02-05T06:29:02.707Z,99.99
2023-02-05T06:30:02.694Z,99.99
2023-02-05T06:31:02.780Z,99.71
2023-02-05T06:32:02.766Z,99.82
2023-02-05T06:33:02.670Z,99.46
2023-02-05T06:34:02.697Z,99.77
2023-02-05T06:35:02.645Z,99.35
2023-02-05T06:36:02.632Z,99.35
2023-02-05T06:37:02.625Z,99.51
2023-02-05T06:38:02.609Z,99.19
2023-02-05T06:39:02.635Z,98.97
2023-02-05T06:40:02.607Z,99.33
2023-02-05T06:41:02.587Z,99.82
2023-02-05T06:42:02.579Z,99.99
2023-02-05T06:43:02.563Z,99.93
2023-02-05T06:44:02.566Z,99.67
2023-02-05T06:45:02.544Z,99.77
2023-02-05T06:46:02.602Z,99.57
2023-02-05T06:47:02.527Z,98.24
2023-02-05T06:48:02.512Z,96.48
2023-02-05T06:49:02.498Z,96.22
2023-02-05T06:50:02.496Z,96.26
2023-02-05T06:51:02.501Z,96.16
2023-02-05T06:52:02.480Z,96.69
2023-02-05T06:53:02.455Z,96.90
2023-02-05T06:54:02.455Z,97.64
2023-02-05T06:55:02.454Z,97.69
2023-02-05T06:56:02.437Z,98.91
2023-02-05T06:57:02.417Z,99.40
2023-02-05T06:58:02.428Z,99.61
2023-02-05T06:59:02.405Z,99.99
2023-02-05T07:00:02.412Z,99.95
2023-02-05T07:01:02.375Z,99.95
2023-02-05T07:02:02.420Z,99.63
2023-02-05T07:03:02.419Z,99.52
2023-02-05T07:04:02.354Z,99.20
2023-02-05T07:05:02.334Z,99.10
2023-02-05T07:06:02.320Z,98.25
2023-02-05T07:07:02.324Z,98.25
2023-02-05T07:08:02.300Z,98.78
2023-02-05T07:09:02.294Z,98.84
2023-02-05T07:10:02.404Z,97.83
2023-02-05T07:11:02.298Z,98.46
2023-02-05T07:12:02.260Z,98.25
2023-02-05T07:13:03.976Z,98.99
2023-02-05T07:14:02.252Z,99.05
2023-02-05T07:15:02.243Z,99.52
2023-02-05T07:16:02.282Z,99.16
2023-02-05T07:17:02.227Z,99.16
2023-02-05T07:18:02.214Z,99.26
2023-02-05T07:19:02.196Z,98.63
2023-02-05T07:20:02.187Z,99.31
2023-02-05T07:21:02.179Z,98.99
2023-02-05T07:22:02.170Z,99.16
2023-02-05T07:23:02.158Z,98.46
2023-02-05T07:24:02.134Z,97.89
2023-02-05T07:25:04.226Z,96.98
2023-02-05T07:26:02.128Z,94.97
2023-02-05T07:27:02.145Z,93.49
2023-02-05T07:28:02.123Z,93.18
2023-02-05T07:29:02.084Z,93.21
2023-02-05T07:30:02.077Z,92.94
2023-02-05T07:31:02.179Z,93.68
2023-02-05T07:32:02.164Z,93.05
2023-02-05T07:33:02.042Z,94.06
2023-02-05T07:34:02.052Z,94.81
2023-02-05T07:35:02.024Z,94.38
2023-02-05T07:36:02.007Z,94.81
2023-02-05T07:37:02.004Z,95.23
2023-02-05T07:38:01.984Z,97.24
2023-02-05T07:39:01.995Z,96.34
2023-02-05T07:40:01.974Z,95.71
2023-02-05T07:41:01.973Z,93.49
2023-02-05T07:42:01.938Z,93.70
2023-02-05T07:43:02.047Z,93.02
2023-02-05T07:44:02.021Z,93.45
2023-02-05T07:45:01.915Z,92.71
2023-02-05T07:46:01.899Z,91.80
2023-02-05T07:47:01.911Z,90.74
2023-02-05T07:48:01.877Z,91.55
2023-02-05T07:49:01.862Z,91.06
2023-02-05T07:50:01.874Z,89.54
2023-02-05T07:51:01.843Z,89.54
2023-02-05T07:52:01.845Z,90.70
2023-02-05T07:53:01.849Z,89.01
2023-02-05T07:54:01.811Z,87.81
2023-02-05T07:55:01.809Z,89.07
2023-02-05T07:56:01.798Z,89.50
2023-02-05T07:57:01.781Z,89.71
2023-02-05T07:58:01.776Z,90.94
2023-02-05T07:59:01.781Z,91.93
2023-02-05T08:00:01.748Z,92.20
2023-02-05T08:01:01.844Z,91.89
2023-02-05T08:02:01.731Z,92.88
2023-02-05T08:03:01.717Z,92.20
2023-02-05T08:04:01.820Z,92.24
2023-02-05T08:05:01.700Z,92.63
2023-02-05T08:06:01.682Z,93.15
2023-02-05T08:07:09.203Z,93.05
2023-02-05T08:08:09.537Z,91.67
2023-02-05T08:09:09.207Z,91.14
2023-02-05T08:10:09.169Z,90.62
2023-02-05T08:11:09.155Z,90.58
2023-02-05T08:12:09.142Z,89.10
2023-02-05T08:13:09.137Z,89.52
2023-02-05T08:14:01.618Z,89.10
2023-02-05T08:15:10.274Z,88.36
2023-02-05T08:16:01.678Z,88.11
2023-02-05T08:17:09.085Z,88.53
2023-02-05T08:18:01.566Z,88.75
2023-02-05T08:19:01.563Z,85.79
2023-02-05T08:20:01.546Z,85.43
2023-02-05T08:21:01.550Z,84.63
2023-02-05T08:22:01.567Z,84.20
2023-02-05T08:23:01.545Z,84.24
2023-02-05T08:24:01.502Z,84.52
2023-02-05T08:25:01.494Z,84.27
2023-02-05T08:26:01.506Z,84.63
2023-02-05T08:27:01.469Z,84.69
2023-02-05T08:28:01.503Z,85.85
2023-02-05T08:29:01.450Z,85.64
2023-02-05T08:30:01.448Z,85.26
2023-02-05T08:31:01.573Z,85.54
2023-02-05T08:32:01.410Z,84.91
2023-02-05T08:33:01.422Z,85.85
2023-02-05T08:34:01.386Z,85.85
2023-02-05T08:35:01.398Z,85.39
2023-02-05T08:36:01.368Z,84.69
2023-02-05T08:37:01.374Z,83.33
2023-02-05T08:38:01.356Z,83.29
2023-02-05T08:39:01.343Z,83.85
2023-02-05T08:40:01.346Z,83.75
2023-02-05T08:41:01.314Z,83.60
2023-02-05T08:42:01.316Z,82.86
2023-02-05T08:43:01.310Z,83.50
2023-02-05T08:44:01.289Z,83.60
2023-02-05T08:45:01.273Z,83.78
2023-02-05T08:46:01.366Z,84.52
2023-02-05T08:47:01.284Z,84.41
2023-02-05T08:48:01.256Z,84.72
2023-02-05T08:49:01.254Z,83.98
2023-02-05T08:50:01.249Z,83.46
2023-02-05T08:51:01.206Z,83.67
2023-02-05T08:52:01.215Z,82.68
2023-02-05T08:53:01.185Z,83.53
2023-02-05T08:54:01.216Z,82.05
2023-02-05T08:55:01.166Z,82.09
2023-02-05T08:56:01.169Z,82.26
2023-02-05T08:57:01.157Z,81.42
2023-02-05T08:58:01.147Z,80.47
2023-02-05T08:59:01.149Z,81.21
2023-02-05T09:00:01.130Z,80.68
2023-02-05T09:01:01.205Z,81.32
2023-02-05T09:02:01.094Z,82.26
2023-02-05T09:03:01.102Z,81.21
2023-02-05T09:04:01.116Z,81.32
2023-02-05T09:05:08.878Z,82.01
2023-02-05T09:06:02.071Z,82.23
2023-02-05T09:07:01.038Z,81.59
2023-02-05T09:08:01.028Z,81.13
2023-02-05T09:09:01.025Z,81.28
2023-02-05T09:10:01.024Z,81.28
2023-02-05T09:11:01.004Z,81.17
2023-02-05T09:12:00.986Z,81.66
2023-02-05T09:13:00.973Z,81.56
2023-02-05T09:14:00.984Z,81.13
2023-02-05T09:15:00.959Z,80.82
2023-02-05T09:16:01.019Z,80.68
2023-02-05T09:17:00.928Z,80.61
2023-02-05T09:18:00.924Z,80.57
2023-02-05T09:19:00.951Z,80.05
2023-02-05T09:20:00.942Z,80.36
2023-02-05T09:21:00.909Z,80.29
2023-02-05T09:22:00.913Z,80.57
2023-02-05T09:23:00.875Z,79.45
2023-02-05T09:24:00.862Z,79.14
2023-02-05T09:25:00.853Z,78.78
2023-02-05T09:26:00.853Z,79.21
2023-02-05T09:27:00.868Z,79.52
2023-02-05T09:28:00.922Z,79.73
2023-02-05T09:29:00.860Z,80.15
2023-02-05T09:30:00.828Z,80.05
2023-02-05T09:31:00.988Z,80.57
2023-02-05T09:32:00.780Z,80.47
2023-02-05T09:33:00.766Z,80.99
2023-02-05T09:34:00.778Z,80.75
2023-02-05T09:35:00.793Z,80.33
2023-02-05T09:36:00.736Z,80.18
2023-02-05T09:37:00.759Z,79.69
2023-02-05T09:38:00.716Z,80.29
2023-02-05T09:39:14.115Z,82.22
2023-02-05T09:40:20.022Z,81.27
2023-02-05T09:41:01.736Z,80.22
2023-02-05T09:42:00.674Z,79.91
2023-02-05T09:43:00.659Z,80.11
2023-02-05T09:44:00.674Z,80.54
2023-02-05T09:45:00.677Z,80.22
2023-02-05T09:46:00.696Z,81.48
2023-02-05T09:47:00.628Z,81.34
2023-02-05T09:48:00.611Z,81.55
2023-02-05T09:49:00.596Z,81.90
2023-02-05T09:50:00.617Z,81.24
2023-02-05T09:51:00.623Z,80.18
2023-02-05T09:52:00.585Z,80.40
2023-02-05T09:53:00.574Z,79.97
2023-02-05T09:54:00.560Z,80.33
2023-02-05T09:55:00.556Z,81.13
2023-02-05T09:56:00.534Z,81.02
2023-02-05T09:57:00.518Z,82.18
2023-02-05T09:58:00.545Z,81.55
2023-02-05T09:59:00.489Z,81.45
2023-02-05T10:00:00.488Z,81.02
2023-02-05T10:01:00.554Z,81.93
2023-02-05T10:02:00.472Z,81.93
2023-02-05T10:03:00.442Z,81.83
2023-02-05T10:04:00.521Z,81.76
2023-02-05T10:05:00.447Z,83.23
2023-02-05T10:06:00.412Z,83.30
2023-02-05T10:07:00.461Z,81.76
2023-02-05T10:08:00.389Z,82.18
2023-02-05T10:09:00.404Z,81.87
2023-02-05T10:10:00.402Z,82.39
2023-02-05T10:11:00.353Z,81.24
2023-02-05T10:12:00.381Z,81.97
2023-02-05T10:13:00.331Z,81.87
2023-02-05T10:14:00.341Z,81.20
2023-02-05T10:15:00.312Z,82.78
2023-02-05T10:16:00.342Z,83.51
2023-02-05T10:17:00.290Z,83.30
2023-02-05T10:18:00.314Z,83.83
2023-02-05T10:19:00.267Z,84.25
2023-02-05T10:20:00.294Z,83.72
2023-02-05T10:21:00.247Z,82.98
2023-02-05T10:22:00.261Z,83.83
2023-02-05T10:23:00.244Z,83.83
2023-02-05T10:24:00.223Z,83.20
2023-02-05T10:25:00.212Z,83.05
2023-02-05T10:26:00.220Z,83.15
2023-02-05T10:27:00.181Z,82.21
2023-02-05T10:28:00.250Z,81.34
2023-02-05T10:29:00.211Z,82.66
2023-02-05T10:30:00.208Z,82.52
2023-02-05T10:31:00.306Z,81.68
2023-02-05T10:32:00.163Z,81.54
2023-02-05T10:33:00.134Z,81.12
2023-02-05T10:34:00.138Z,79.93
2023-02-05T10:35:00.189Z,79.83
2023-02-05T10:36:00.099Z,78.95
2023-02-05T10:37:00.095Z,78.08
2023-02-05T10:38:00.083Z,78.46
2023-02-05T10:39:00.172Z,78.11
2023-02-05T10:40:00.089Z,79.16
2023-02-05T10:41:00.637Z,78.29
2023-02-05T10:42:00.074Z,78.29
2023-02-05T10:43:00.015Z,77.55
2023-02-05T10:44:00.020Z,78.67
2023-02-05T10:44:59.996Z,74.69
2023-02-05T10:46:00.165Z,75.26
2023-02-05T10:46:59.990Z,74.80
2023-02-05T10:47:59.981Z,78.42
2023-02-05T10:48:59.947Z,78.46
2023-02-05T10:49:59.942Z,78.56
2023-02-05T10:50:59.947Z,78.67
2023-02-05T10:51:59.932Z,79.75
2023-02-05T10:52:59.906Z,78.70
2023-02-05T10:53:59.899Z,78.50
2023-02-05T10:54:59.976Z,79.02
2023-02-05T10:55:59.911Z,79.90
2023-02-05T10:56:59.900Z,79.30
2023-02-05T10:57:59.919Z,78.74
2023-02-05T10:58:59.850Z,76.20
2023-02-05T10:59:59.897Z,76.51
2023-02-05T11:00:59.822Z,76.23
2023-02-05T11:01:59.852Z,76.54
2023-02-05T11:02:59.960Z,77.03
2023-02-05T11:03:59.794Z,76.51
2023-02-05T11:04:59.788Z,76.09
2023-02-05T11:05:59.799Z,75.81
2023-02-05T11:06:59.759Z,74.46
2023-02-05T11:07:59.753Z,74.04
2023-02-05T11:08:59.801Z,73.55
2023-02-05T11:09:59.730Z,72.62
2023-02-05T11:10:59.766Z,71.23
2023-02-05T11:11:59.756Z,70.47
2023-02-05T11:12:59.694Z,70.33
2023-02-05T11:13:59.690Z,69.43
2023-02-05T11:14:59.748Z,69.02
2023-02-05T11:15:59.721Z,67.54
2023-02-05T11:16:59.657Z,67.12
2023-02-05T11:17:59.638Z,65.81
2023-02-05T11:18:59.664Z,65.32
2023-02-05T11:19:59.618Z,64.90
2023-02-05T11:20:59.647Z,64.87
2023-02-05T11:21:59.596Z,64.90
2023-02-05T11:22:59.592Z,65.63
2023-02-05T11:23:59.577Z,65.69
2023-02-05T11:24:59.596Z,65.56
2023-02-05T11:25:59.584Z,65.73
2023-02-05T11:26:59.566Z,66.78
2023-02-05T11:27:59.574Z,67.85
2023-02-05T11:28:59.581Z,69.47
2023-02-05T11:29:59.523Z,70.27
2023-02-05T11:30:59.944Z,69.57
2023-02-05T11:31:59.674Z,71.99
2023-02-05T11:32:59.476Z,72.69
2023-02-05T11:33:59.468Z,72.86
2023-02-05T11:34:59.523Z,73.38
2023-02-05T11:35:59.463Z,73.69
2023-02-05T11:36:59.434Z,72.92
2023-02-05T11:37:59.431Z,72.51
2023-02-05T11:38:59.420Z,72.78
2023-02-05T11:39:59.515Z,72.72
2023-02-05T11:40:59.392Z,71.78
2023-02-05T11:41:59.412Z,72.09
2023-02-05T11:42:59.392Z,71.44
2023-02-05T11:43:59.367Z,71.30
2023-02-05T11:44:59.397Z,69.22
2023-02-05T11:45:59.356Z,68.56
2023-02-05T11:46:59.327Z,67.98
2023-02-05T11:47:59.312Z,66.81
2023-02-05T11:48:59.305Z,67.12
2023-02-05T11:49:59.356Z,68.47
2023-02-05T11:50:59.295Z,68.81
2023-02-05T11:51:59.293Z,68.93
2023-02-05T11:52:59.265Z,66.85
2023-02-05T11:53:59.248Z,66.30
2023-02-05T11:54:59.241Z,66.44
2023-02-05T11:55:59.280Z,67.30
2023-02-05T11:56:59.232Z,67.16
2023-02-05T11:57:59.231Z,65.70
2023-02-05T11:58:59.290Z,66.64
2023-02-05T11:59:59.188Z,66.72
2023-02-05T12:00:59.181Z,66.99
2023-02-05T12:01:59.209Z,66.93
2023-02-05T12:02:59.233Z,66.06
2023-02-05T12:03:59.145Z,66.47
2023-02-05T12:04:59.149Z,65.48
2023-02-05T12:05:59.120Z,65.23
2023-02-05T12:06:59.128Z,66.75
2023-02-05T12:07:59.104Z,66.47
2023-02-05T12:08:59.114Z,68.44
2023-02-05T12:09:59.081Z,66.82
2023-02-05T12:10:59.071Z,68.93
2023-02-05T12:11:59.058Z,68.54
2023-02-05T12:12:59.064Z,67.95
2023-02-05T12:13:59.045Z,68.72
2023-02-05T12:14:59.079Z,67.51
2023-02-05T12:15:59.057Z,67.45
2023-02-05T12:16:59.011Z,66.02
2023-02-05T12:17:59.037Z,64.04
2023-02-05T12:18:58.993Z,64.83
2023-02-05T12:19:58.970Z,65.56
2023-02-05T12:20:58.996Z,65.04
2023-02-05T12:21:58.952Z,63.72
2023-02-05T12:22:58.940Z,64.79
2023-02-05T12:23:58.952Z,66.47
2023-02-05T12:24:58.917Z,68.65
2023-02-05T12:25:58.909Z,67.61
2023-02-05T12:26:58.924Z,67.79
2023-02-05T12:27:58.892Z,68.68
2023-02-05T12:28:58.873Z,69.05
2023-02-05T12:29:58.875Z,71.23
2023-02-05T12:30:58.899Z,71.27
2023-02-05T12:31:58.913Z,72.24
2023-02-05T12:32:58.873Z,72.69
2023-02-05T12:33:58.829Z,73.94
2023-02-05T12:34:58.830Z,75.81
2023-02-05T12:35:58.804Z,76.06
2023-02-05T12:36:58.782Z,75.88
2023-02-05T12:37:58.772Z,76.82
2023-02-05T12:38:58.807Z,77.89
2023-02-05T12:39:58.752Z,77.23
2023-02-05T12:40:58.750Z,77.13
2023-02-05T12:41:58.725Z,77.80
2023-02-05T12:42:58.721Z,78.94
2023-02-05T12:43:58.704Z,79.15
2023-02-05T12:44:58.789Z,79.81
2023-02-05T12:45:58.763Z,78.70
2023-02-05T12:46:58.701Z,78.49
2023-02-05T12:47:58.658Z,79.43
2023-02-05T12:48:58.663Z,80.58
2023-02-05T12:49:58.657Z,80.44
2023-02-05T12:50:58.722Z,81.48
2023-02-05T12:51:58.617Z,80.33